Fort Gratiot, Michigan
Current Conditions -  °F | °C
As of 10:45 PM on Sunday 23 Nov 2014 (Local Time) from CYZR Reporting Station
Light Rain Light Rain  
Wind Chill: 50°   Ceiling: 2400
Heat Index: 50°   Visibility: 5mi
Dew Point: 46°   Wind: 23mph
Humidity: 87%   Direction: 140°SE
Pressure: 29.39"   Gusts: 33mph
Location:  43.08°N, 82.49°W
Report Text: CYZR 240345Z AUTO 14020G29KT 5SM -RA BR BKN024 BKN030 OVC048 10/08 A2939 RMK PRESFR PCPN 4.0MM PAST HR SLP956 DENSITY ALT 600FT
Loading
Personal Weather Stations






























Interactive Weather Map New forecast layout! Learn more

10-Day Weather Forecast

Advertisements
Track Severe Weather on mobile